createdAt,value
2022-12-18T00:01:28.101Z,29.02
2022-12-18T00:03:56.126Z,27.45
2022-12-18T00:06:23.954Z,26.02
2022-12-18T00:08:50.857Z,30.02
2022-12-18T00:11:22.464Z,28.33
2022-12-18T00:13:49.326Z,29.17
2022-12-18T00:16:21.549Z,26.52
2022-12-18T00:18:53.392Z,28.02
2022-12-18T00:21:21.188Z,30.80
2022-12-18T00:23:49.322Z,30.88
2022-12-18T00:26:25.457Z,29.73
2022-12-18T00:28:52.993Z,27.30
2022-12-18T00:31:23.195Z,26.70
2022-12-18T00:33:54.180Z,27.27
2022-12-18T00:36:25.194Z,24.98
2022-12-18T00:38:52.045Z,26.45
2022-12-18T00:41:39.555Z,26.58
2022-12-18T00:44:08.506Z,26.60
2022-12-18T00:46:35.280Z,26.02
2022-12-18T00:49:02.457Z,23.58
2022-12-18T00:51:29.251Z,25.83
2022-12-18T00:53:56.168Z,23.20
2022-12-18T00:56:23.504Z,27.70
2022-12-18T00:58:50.506Z,28.83
2022-12-18T01:01:18.044Z,27.15
2022-12-18T01:03:46.268Z,31.17
2022-12-18T01:06:14.963Z,29.08
2022-12-18T01:08:41.771Z,26.73
2022-12-18T01:11:11.197Z,28.25
2022-12-18T01:13:38.803Z,25.73
2022-12-18T01:16:06.383Z,26.25
2022-12-18T01:18:33.306Z,26.48
2022-12-18T01:21:00.057Z,27.63
2022-12-18T01:23:28.074Z,32.08
2022-12-18T01:25:54.899Z,29.98
2022-12-18T01:28:21.636Z,28.17
2022-12-18T01:30:48.391Z,30.92
2022-12-18T01:33:15.185Z,28.75
2022-12-18T01:35:43.377Z,29.63
2022-12-18T01:38:10.582Z,30.20
2022-12-18T01:40:38.260Z,30.52
2022-12-18T01:43:05.095Z,31.80
2022-12-18T01:45:33.454Z,32.63
2022-12-18T01:48:07.714Z,28.35
2022-12-18T01:50:40.900Z,29.88
2022-12-18T01:53:16.523Z,30.70
2022-12-18T01:55:51.382Z,30.13
2022-12-18T01:58:19.414Z,34.63
2022-12-18T02:00:46.592Z,30.40
2022-12-18T02:03:13.994Z,30.50
2022-12-18T02:05:50.088Z,30.13
2022-12-18T02:08:26.044Z,31.07
2022-12-18T02:13:32.259Z,30.30
2022-12-18T02:16:07.844Z,33.00
2022-12-18T02:18:39.346Z,29.17
2022-12-18T02:21:47.128Z,27.98
2022-12-18T02:24:19.874Z,31.60
2022-12-18T02:27:00.786Z,28.60
2022-12-18T02:29:34.022Z,29.40
2022-12-18T02:32:02.245Z,31.13
2022-12-18T02:34:37.784Z,30.65
2022-12-18T02:37:08.878Z,31.55
2022-12-18T02:39:38.487Z,27.95
2022-12-18T02:42:09.071Z,32.47
2022-12-18T02:44:44.314Z,29.48
2022-12-18T02:47:13.792Z,34.35
2022-12-18T02:50:34.005Z,32.15
2022-12-18T02:53:21.635Z,34.53
2022-12-18T02:56:17.262Z,32.78
2022-12-18T02:58:49.023Z,31.75
2022-12-18T03:01:24.473Z,31.17
2022-12-18T03:03:56.445Z,35.72
2022-12-18T03:06:31.081Z,31.20
2022-12-18T03:09:02.114Z,32.13
2022-12-18T03:11:52.981Z,28.67
2022-12-18T03:14:22.923Z,28.00
2022-12-18T03:16:53.407Z,30.63
2022-12-18T03:19:23.353Z,27.70
2022-12-18T03:21:56.361Z,22.73
2022-12-18T03:24:25.319Z,25.63
2022-12-18T03:26:55.858Z,26.60
2022-12-18T03:29:41.499Z,23.05
2022-12-18T03:32:25.883Z,25.90
2022-12-18T03:34:57.506Z,22.75
2022-12-18T03:37:24.378Z,24.63
2022-12-18T03:39:51.184Z,28.90
2022-12-18T03:42:32.607Z,22.75
2022-12-18T03:45:10.491Z,23.95
2022-12-18T03:48:06.876Z,24.02
2022-12-18T03:51:04.862Z,24.65
2022-12-18T03:53:55.365Z,21.45
2022-12-18T03:56:26.089Z,21.15
2022-12-18T03:58:54.284Z,22.55
2022-12-18T04:01:26.875Z,21.17
2022-12-18T04:03:55.011Z,21.67
2022-12-18T04:06:22.577Z,22.85
2022-12-18T04:08:50.048Z,21.95
2022-12-18T04:11:17.550Z,22.00
2022-12-18T04:13:44.614Z,20.42
2022-12-18T04:16:11.481Z,21.77
2022-12-18T04:18:38.399Z,22.88
2022-12-18T04:21:05.403Z,22.42
2022-12-18T04:23:32.257Z,17.90
2022-12-18T04:25:59.054Z,21.75
2022-12-18T04:28:25.924Z,19.30
2022-12-18T04:30:53.256Z,21.90
2022-12-18T04:33:20.162Z,21.65
2022-12-18T04:35:47.058Z,20.13
2022-12-18T04:38:14.454Z,20.63
2022-12-18T04:40:41.272Z,21.15
2022-12-18T04:43:08.714Z,20.15
2022-12-18T04:45:35.584Z,22.60
2022-12-18T04:48:03.682Z,19.88
2022-12-18T04:50:31.469Z,19.00
2022-12-18T04:52:59.027Z,19.02
2022-12-18T04:55:25.798Z,17.75
2022-12-18T04:57:52.991Z,22.95
2022-12-18T05:00:20.298Z,21.77
2022-12-18T05:02:47.331Z,21.27
2022-12-18T05:05:14.360Z,23.20
2022-12-18T05:07:41.254Z,19.40
2022-12-18T05:10:08.965Z,21.88
2022-12-18T05:12:57.589Z,21.25
2022-12-18T05:15:24.760Z,22.95
2022-12-18T05:17:51.503Z,22.70
2022-12-18T05:20:19.273Z,20.35
2022-12-18T05:22:46.188Z,22.95
2022-12-18T05:25:12.986Z,22.05
2022-12-18T05:27:39.789Z,23.35
2022-12-18T05:30:07.286Z,25.42
2022-12-18T05:32:34.064Z,23.25
2022-12-18T05:35:01.049Z,25.40
2022-12-18T05:37:27.849Z,26.05
2022-12-18T05:39:54.572Z,20.42
2022-12-18T05:42:21.371Z,23.48
2022-12-18T05:44:48.495Z,21.17
2022-12-18T05:47:15.265Z,24.20
2022-12-18T05:49:42.132Z,22.90
2022-12-18T05:52:08.986Z,19.52
2022-12-18T05:54:35.773Z,23.95
2022-12-18T05:57:02.592Z,22.60
2022-12-18T05:59:29.386Z,21.92
2022-12-18T06:01:56.347Z,20.65
2022-12-18T06:04:24.130Z,22.80
2022-12-18T06:06:50.847Z,19.00
2022-12-18T06:09:17.590Z,18.92
2022-12-18T06:11:44.353Z,17.73
2022-12-18T06:14:11.159Z,19.92
2022-12-18T06:16:38.060Z,22.13
2022-12-18T06:19:06.757Z,20.88
2022-12-18T06:21:33.926Z,21.63
2022-12-18T06:24:01.896Z,18.98
2022-12-18T06:26:28.875Z,22.15
2022-12-18T06:28:55.741Z,20.48
2022-12-18T06:31:22.622Z,20.67
2022-12-18T06:33:49.486Z,20.65
2022-12-18T06:36:17.572Z,23.63
2022-12-18T06:38:45.325Z,20.13
2022-12-18T06:41:15.430Z,22.80
2022-12-18T06:43:43.003Z,23.40
2022-12-18T06:46:10.161Z,21.00
2022-12-18T06:48:37.146Z,20.30
2022-12-18T06:51:04.617Z,18.27
2022-12-18T06:53:33.178Z,21.83
2022-12-18T06:56:10.320Z,25.02
2022-12-18T06:58:38.625Z,18.63
2022-12-18T07:01:07.462Z,18.60
2022-12-18T07:03:34.655Z,19.02
2022-12-18T07:06:01.464Z,21.05
2022-12-18T07:08:29.402Z,18.63
2022-12-18T07:10:56.615Z,21.13
2022-12-18T07:13:23.630Z,21.15
2022-12-18T07:15:50.832Z,19.88
2022-12-18T07:18:17.631Z,19.27
2022-12-18T07:20:45.197Z,19.05
2022-12-18T07:23:12.939Z,21.10
2022-12-18T07:25:40.478Z,21.60
2022-12-18T07:28:08.222Z,19.58
2022-12-18T07:30:38.624Z,22.50
2022-12-18T07:33:05.660Z,20.85
2022-12-18T07:35:33.640Z,21.35
2022-12-18T07:38:01.613Z,19.90
2022-12-18T07:40:28.430Z,20.58
2022-12-18T07:42:55.173Z,17.58
2022-12-18T07:45:21.926Z,21.98
2022-12-18T07:47:48.702Z,18.77
2022-12-18T07:50:15.685Z,22.95
2022-12-18T07:52:42.458Z,22.05
2022-12-18T07:55:09.578Z,18.90
2022-12-18T07:57:54.343Z,21.23
2022-12-18T08:00:23.420Z,20.85
2022-12-18T08:02:50.263Z,20.08
2022-12-18T08:05:17.289Z,20.98
2022-12-18T08:07:44.074Z,21.67
2022-12-18T08:10:11.084Z,22.08
2022-12-18T08:12:37.792Z,21.02
2022-12-18T08:15:04.887Z,20.60
2022-12-18T08:17:32.976Z,22.27
2022-12-18T08:19:59.742Z,20.85
2022-12-18T08:22:26.741Z,17.63
2022-12-18T08:24:53.464Z,20.75
2022-12-18T08:27:29.338Z,18.52
2022-12-18T08:29:57.691Z,15.65
2022-12-18T08:32:26.227Z,18.17
2022-12-18T08:34:53.046Z,17.45
2022-12-18T08:37:19.889Z,15.43
2022-12-18T08:39:46.708Z,16.25
2022-12-18T08:42:32.189Z,16.65
2022-12-18T08:44:59.258Z,19.00
2022-12-18T08:47:26.981Z,17.08
2022-12-18T08:49:53.837Z,18.85
2022-12-18T08:52:20.578Z,17.35
2022-12-18T08:54:47.333Z,17.60
2022-12-18T08:57:14.125Z,16.20
2022-12-18T08:59:40.840Z,18.08
2022-12-18T09:02:09.254Z,16.60
2022-12-18T09:04:36.205Z,16.15
2022-12-18T09:07:02.950Z,16.25
2022-12-18T09:09:29.721Z,17.58
2022-12-18T09:11:56.517Z,17.58
2022-12-18T09:14:23.335Z,15.05
2022-12-18T09:16:50.462Z,17.00
2022-12-18T09:19:17.689Z,13.77
2022-12-18T09:21:47.978Z,17.17
2022-12-18T09:24:16.076Z,16.02
2022-12-18T09:26:44.645Z,13.88
2022-12-18T09:29:15.524Z,15.20
2022-12-18T09:31:43.161Z,17.00
2022-12-18T09:34:10.020Z,14.02
2022-12-18T09:36:37.055Z,11.95
2022-12-18T09:39:08.177Z,15.18
2022-12-18T09:41:38.131Z,15.68
2022-12-18T09:44:33.690Z,16.15
2022-12-18T09:47:24.442Z,14.30
2022-12-18T09:49:59.194Z,15.50
2022-12-18T09:52:44.896Z,12.48
2022-12-18T09:55:11.832Z,13.55
2022-12-18T09:57:48.346Z,13.55
2022-12-18T10:00:24.005Z,13.40
2022-12-18T10:03:00.044Z,13.63
2022-12-18T10:05:33.097Z,16.13
2022-12-18T10:08:09.055Z,14.27
2022-12-18T10:13:21.855Z,13.77
2022-12-18T10:16:07.431Z,14.05
2022-12-18T10:19:06.333Z,13.38
2022-12-18T10:21:42.479Z,18.05
2022-12-18T10:24:26.409Z,17.42
2022-12-18T10:26:57.209Z,14.75
2022-12-18T10:29:25.774Z,13.27
2022-12-18T10:31:52.488Z,15.82
2022-12-18T10:34:19.310Z,13.63
2022-12-18T10:36:47.583Z,16.40
2022-12-18T10:39:27.181Z,17.15
2022-12-18T10:42:13.951Z,13.98
2022-12-18T10:44:40.831Z,17.92
2022-12-18T10:47:15.298Z,15.90
2022-12-18T10:49:50.620Z,16.13
2022-12-18T10:52:22.236Z,16.42
2022-12-18T10:54:59.469Z,14.13
2022-12-18T10:57:37.945Z,16.33
2022-12-18T11:00:25.683Z,13.02
2022-12-18T11:02:53.249Z,15.85
2022-12-18T11:05:25.272Z,14.95
2022-12-18T11:07:55.154Z,15.45
2022-12-18T11:10:26.804Z,12.25
2022-12-18T11:12:56.355Z,13.10
2022-12-18T11:15:30.494Z,13.25
2022-12-18T11:17:57.516Z,16.95
2022-12-18T11:20:32.803Z,16.10
2022-12-18T11:23:05.597Z,15.55
2022-12-18T11:25:35.709Z,16.42
2022-12-18T11:28:27.185Z,14.30
2022-12-18T11:31:11.150Z,11.73
2022-12-18T11:33:53.134Z,15.25
2022-12-18T11:36:32.028Z,15.23
2022-12-18T11:39:02.928Z,13.38
2022-12-18T11:42:12.862Z,15.55
2022-12-18T11:45:08.997Z,15.98
2022-12-18T11:47:59.639Z,14.27
2022-12-18T11:50:31.594Z,17.70
2022-12-18T11:53:02.787Z,13.50
2022-12-18T11:55:45.797Z,16.25
2022-12-18T11:58:32.713Z,15.35
2022-12-18T12:01:17.790Z,13.43
2022-12-18T12:03:47.366Z,16.42
2022-12-18T12:06:39.739Z,14.73
2022-12-18T12:09:18.411Z,14.38
2022-12-18T12:12:00.272Z,11.75
2022-12-18T12:14:59.012Z,15.85
2022-12-18T12:17:43.855Z,13.45
2022-12-18T12:20:18.890Z,15.05
2022-12-18T12:22:55.455Z,15.90
2022-12-18T12:25:38.217Z,13.73
2022-12-18T12:28:22.621Z,14.95
2022-12-18T12:30:58.531Z,14.88
2022-12-18T12:36:38.853Z,15.52
2022-12-18T12:39:15.538Z,13.02
2022-12-18T12:42:04.477Z,15.20
2022-12-18T12:44:36.964Z,14.57
2022-12-18T12:47:15.604Z,13.07
2022-12-18T12:49:48.791Z,12.23
2022-12-18T12:52:29.952Z,14.50
2022-12-18T12:54:58.209Z,12.25
2022-12-18T12:57:37.438Z,13.45
2022-12-18T13:00:07.696Z,12.13
2022-12-18T13:02:43.375Z,12.25
2022-12-18T13:05:56.119Z,11.20
2022-12-18T13:08:27.796Z,12.88
2022-12-18T13:11:18.800Z,13.80
2022-12-18T13:13:57.464Z,11.80
2022-12-18T13:16:28.305Z,12.50
2022-12-18T13:18:59.732Z,14.38
2022-12-18T13:21:32.013Z,13.38
2022-12-18T13:24:21.158Z,15.15
2022-12-18T13:26:49.499Z,11.45
2022-12-18T13:29:45.855Z,12.18
2022-12-18T13:32:26.721Z,16.50
2022-12-18T13:35:23.423Z,14.63
2022-12-18T13:37:55.128Z,12.95
2022-12-18T13:40:40.177Z,14.23
2022-12-18T13:43:18.938Z,14.38
2022-12-18T13:46:25.816Z,18.23
2022-12-18T13:49:22.571Z,14.10
2022-12-18T13:51:52.334Z,17.25
2022-12-18T13:54:40.387Z,12.85
2022-12-18T13:57:28.265Z,12.80
2022-12-18T13:59:56.056Z,11.82
2022-12-18T14:02:28.791Z,12.55
2022-12-18T14:04:56.550Z,13.60
2022-12-18T14:07:26.270Z,14.30
2022-12-18T14:10:12.159Z,14.52
2022-12-18T14:12:57.835Z,18.70
2022-12-18T14:15:27.980Z,13.52
2022-12-18T14:17:59.031Z,13.38
2022-12-18T14:20:27.175Z,14.80
2022-12-18T14:22:55.519Z,17.00
2022-12-18T14:25:25.270Z,18.02
2022-12-18T14:28:02.382Z,15.95
2022-12-18T14:30:36.602Z,15.30
2022-12-18T14:33:06.498Z,17.40
2022-12-18T14:35:34.946Z,13.05
2022-12-18T14:38:28.787Z,15.57
2022-12-18T14:40:59.707Z,11.50
2022-12-18T14:43:28.704Z,15.82
2022-12-18T14:45:56.369Z,15.32
2022-12-18T14:48:35.381Z,13.93
2022-12-18T14:51:05.948Z,15.90
2022-12-18T14:53:35.897Z,14.20
2022-12-18T14:56:04.278Z,17.08
2022-12-18T14:58:31.298Z,15.73
2022-12-18T15:00:58.319Z,15.85
2022-12-18T15:03:25.925Z,20.98
2022-12-18T15:05:53.515Z,15.98
2022-12-18T15:08:35.318Z,20.52
2022-12-18T15:11:02.301Z,15.23
2022-12-18T15:13:29.957Z,15.57
2022-12-18T15:16:03.923Z,14.70
2022-12-18T15:18:35.904Z,15.35
2022-12-18T15:21:11.864Z,16.02
2022-12-18T15:26:13.627Z,16.13
2022-12-18T15:28:48.210Z,19.77
2022-12-18T15:31:17.419Z,16.13
2022-12-18T15:34:01.792Z,13.38
2022-12-18T15:36:28.614Z,17.60
2022-12-18T15:39:04.842Z,13.65
2022-12-18T15:41:37.156Z,14.70
2022-12-18T15:44:19.244Z,15.48
2022-12-18T15:46:46.060Z,20.25
2022-12-18T15:49:12.835Z,23.27
2022-12-18T15:51:40.399Z,20.25
2022-12-18T15:54:14.395Z,17.80
2022-12-18T15:57:00.049Z,17.17
2022-12-18T15:59:27.127Z,13.68
2022-12-18T16:01:54.374Z,14.15
2022-12-18T16:04:22.850Z,13.43
2022-12-18T16:09:37.713Z,12.27
2022-12-18T16:12:05.528Z,10.40
2022-12-18T16:14:33.511Z,12.32
2022-12-18T16:17:03.337Z,13.63
2022-12-18T16:19:30.983Z,14.32
2022-12-18T16:21:59.347Z,11.13
2022-12-18T16:24:29.294Z,10.55
2022-12-18T16:26:59.786Z,14.57
2022-12-18T16:29:28.454Z,16.67
2022-12-18T16:31:56.745Z,15.00
2022-12-18T16:34:35.210Z,13.43
2022-12-18T16:37:08.044Z,20.55
2022-12-18T16:39:35.905Z,18.05
2022-12-18T16:42:17.874Z,17.70
2022-12-18T16:44:45.770Z,19.58
2022-12-18T16:47:15.035Z,21.25
2022-12-18T16:49:42.977Z,18.52
2022-12-18T16:52:09.782Z,17.67
2022-12-18T16:54:36.906Z,16.67
2022-12-18T16:57:05.476Z,21.70
2022-12-18T16:59:32.566Z,17.45
2022-12-18T17:01:59.404Z,16.33
2022-12-18T17:04:26.295Z,13.32
2022-12-18T17:06:53.971Z,9.93
2022-12-18T17:09:28.387Z,12.90
2022-12-18T17:11:55.414Z,13.88
2022-12-18T17:14:24.271Z,13.32
2022-12-18T17:17:19.095Z,15.27
2022-12-18T17:19:38.806Z,18.73
2022-12-18T17:22:05.593Z,17.23
2022-12-18T17:24:35.253Z,16.50
2022-12-18T17:27:03.185Z,17.75
2022-12-18T17:29:30.033Z,19.20
2022-12-18T17:31:57.319Z,16.85
2022-12-18T17:34:26.487Z,17.77
2022-12-18T17:36:53.207Z,16.42
2022-12-18T17:39:21.118Z,16.95
2022-12-18T17:41:48.855Z,17.50
2022-12-18T17:44:16.594Z,11.23
2022-12-18T17:46:44.185Z,14.82
2022-12-18T17:49:11.573Z,14.32
2022-12-18T17:51:38.450Z,10.93
2022-12-18T17:54:05.457Z,17.73
2022-12-18T17:56:32.952Z,14.90
2022-12-18T17:58:59.930Z,17.52
2022-12-18T18:01:27.552Z,20.27
2022-12-18T18:03:58.119Z,15.55
2022-12-18T18:06:24.992Z,19.17
2022-12-18T18:08:51.899Z,19.35
2022-12-18T18:11:55.961Z,20.15
2022-12-18T18:14:23.201Z,18.33
2022-12-18T18:16:52.306Z,21.25
2022-12-18T18:19:24.614Z,14.40
2022-12-18T18:21:53.261Z,14.90
2022-12-18T18:24:23.516Z,13.68
2022-12-18T18:26:50.537Z,13.73
2022-12-18T18:29:20.648Z,14.25
2022-12-18T18:31:48.127Z,15.18
2022-12-18T18:34:21.685Z,13.13
2022-12-18T18:36:48.503Z,15.77
2022-12-18T18:39:15.348Z,12.70
2022-12-18T18:41:45.073Z,12.07
2022-12-18T18:44:15.813Z,14.70
2022-12-18T18:46:42.564Z,12.05
2022-12-18T18:49:10.084Z,11.60
2022-12-18T18:51:36.861Z,12.80
2022-12-18T18:54:03.802Z,12.68
2022-12-18T18:59:18.510Z,11.98
2022-12-18T19:01:45.593Z,12.45
2022-12-18T19:04:12.522Z,14.30
2022-12-18T19:06:39.684Z,15.77
2022-12-18T19:09:07.625Z,18.58
2022-12-18T19:11:53.084Z,13.88
2022-12-18T19:14:20.413Z,12.40
2022-12-18T19:16:47.192Z,16.05
2022-12-18T19:19:14.176Z,15.02
2022-12-18T19:21:41.236Z,15.05
2022-12-18T19:24:10.132Z,14.90
2022-12-18T19:26:37.730Z,14.55
2022-12-18T19:29:06.440Z,14.07
2022-12-18T19:31:35.983Z,14.88
2022-12-18T19:34:05.314Z,15.02
2022-12-18T19:36:33.225Z,16.85
2022-12-18T19:39:01.304Z,15.05
2022-12-18T19:41:32.898Z,12.85
2022-12-18T19:44:07.600Z,14.73
2022-12-18T19:46:36.203Z,14.48
2022-12-18T19:49:06.546Z,21.35
2022-12-18T19:51:33.351Z,15.80
2022-12-18T19:54:01.908Z,16.10
2022-12-18T19:56:32.198Z,14.95
2022-12-18T19:59:00.125Z,16.17
2022-12-18T20:01:29.004Z,15.20
2022-12-18T20:03:57.460Z,19.42
2022-12-18T20:06:30.062Z,20.58
2022-12-18T20:09:00.501Z,14.88
2022-12-18T20:11:28.988Z,13.98
2022-12-18T20:13:55.977Z,17.10
2022-12-18T20:16:22.874Z,14.57
2022-12-18T20:18:49.694Z,17.20
2022-12-18T20:21:16.491Z,13.27
2022-12-18T20:23:44.001Z,17.25
2022-12-18T20:26:11.180Z,17.63
2022-12-18T20:28:40.738Z,19.95
2022-12-18T20:31:10.506Z,15.50
2022-12-18T20:33:41.558Z,17.63
2022-12-18T20:36:13.800Z,20.10
2022-12-18T20:38:42.302Z,14.70
2022-12-18T20:41:17.185Z,17.17
2022-12-18T20:43:45.212Z,15.35
2022-12-18T20:46:14.371Z,14.15
2022-12-18T20:48:41.792Z,14.52
2022-12-18T20:51:11.092Z,12.40
2022-12-18T20:53:40.148Z,14.77
2022-12-18T20:56:17.769Z,17.08
2022-12-18T20:58:49.240Z,12.77
2022-12-18T21:01:18.573Z,12.45
2022-12-18T21:03:46.112Z,16.63
2022-12-18T21:06:14.259Z,17.10
2022-12-18T21:08:42.978Z,18.13
2022-12-18T21:11:32.733Z,16.95
2022-12-18T21:14:00.156Z,15.88
2022-12-18T21:16:27.042Z,14.98
2022-12-18T21:18:54.984Z,15.48
2022-12-18T21:21:26.556Z,14.18
2022-12-18T21:23:54.311Z,15.20
2022-12-18T21:26:28.407Z,10.70
2022-12-18T21:29:01.247Z,15.68
2022-12-18T21:31:31.299Z,13.90
2022-12-18T21:34:02.071Z,17.00
2022-12-18T21:36:29.994Z,18.42
2022-12-18T21:38:58.365Z,17.48
2022-12-18T21:41:44.686Z,17.63
2022-12-18T21:44:16.785Z,16.90
2022-12-18T21:46:50.154Z,15.52
2022-12-18T21:49:22.070Z,20.25
2022-12-18T21:51:50.839Z,16.80
2022-12-18T21:54:18.176Z,20.00
2022-12-18T21:57:06.012Z,16.52
2022-12-18T21:59:35.255Z,18.25
2022-12-18T22:02:05.157Z,17.45
2022-12-18T22:04:32.032Z,15.90
2022-12-18T22:06:59.511Z,19.30
2022-12-18T22:09:26.473Z,16.23
2022-12-18T22:11:53.326Z,15.95
2022-12-18T22:14:21.380Z,17.73
2022-12-18T22:16:49.584Z,13.95
2022-12-18T22:19:18.216Z,15.55
2022-12-18T22:21:47.362Z,16.13
2022-12-18T22:24:16.330Z,16.02
2022-12-18T22:26:43.860Z,17.40
2022-12-18T22:29:34.267Z,14.55
2022-12-18T22:32:02.268Z,13.40
2022-12-18T22:34:29.212Z,16.80
2022-12-18T22:36:56.015Z,17.00
2022-12-18T22:39:25.416Z,14.13
2022-12-18T22:41:52.716Z,15.30
2022-12-18T22:44:20.095Z,17.08
2022-12-18T22:46:52.189Z,16.15
2022-12-18T22:49:27.585Z,15.00
2022-12-18T22:51:54.616Z,15.63
2022-12-18T22:54:22.136Z,16.83
2022-12-18T22:56:49.306Z,16.25
2022-12-18T22:59:19.122Z,15.90
2022-12-18T23:01:46.933Z,14.55
2022-12-18T23:04:15.317Z,15.57
2022-12-18T23:06:43.031Z,14.27
2022-12-18T23:09:16.516Z,17.90
2022-12-18T23:11:43.811Z,15.95
2022-12-18T23:14:11.040Z,15.23
2022-12-18T23:16:37.846Z,15.80
2022-12-18T23:19:05.775Z,14.88
2022-12-18T23:21:32.576Z,17.73
2022-12-18T23:24:00.801Z,16.75
2022-12-18T23:26:27.819Z,13.93
2022-12-18T23:28:56.655Z,16.30
2022-12-18T23:31:26.831Z,19.98
2022-12-18T23:33:56.604Z,17.10
2022-12-18T23:36:24.331Z,16.80
2022-12-18T23:38:59.709Z,15.80
2022-12-18T23:41:30.054Z,14.48
2022-12-18T23:43:57.737Z,21.23
2022-12-18T23:46:33.437Z,14.93
2022-12-18T23:49:02.442Z,22.58
2022-12-18T23:51:30.140Z,17.80
2022-12-18T23:53:59.586Z,17.35
2022-12-18T23:56:28.155Z,18.52
2022-12-18T23:58:55.698Z,18.02
